sensor_id;sensor_type;location;lat;lon;timestamp;P1;durP1;ratioP1;P2;durP2;ratioP2
22543;SDS011;11438;52.044;8.716;2023-02-11T00:00:07;34.70;;;19.53;;
22543;SDS011;11438;52.044;8.716;2023-02-11T00:02:34;37.40;;;20.63;;
22543;SDS011;11438;52.044;8.716;2023-02-11T00:04:59;40.07;;;21.57;;
22543;SDS011;11438;52.044;8.716;2023-02-11T00:07:29;39.60;;;22.00;;
22543;SDS011;11438;52.044;8.716;2023-02-11T00:09:56;37.17;;;21.60;;
22543;SDS011;11438;52.044;8.716;2023-02-11T00:12:21;39.23;;;21.10;;
22543;SDS011;11438;52.044;8.716;2023-02-11T00:14:47;44.33;;;23.57;;
22543;SDS011;11438;52.044;8.716;2023-02-11T00:17:13;40.35;;;22.75;;
22543;SDS011;11438;52.044;8.716;2023-02-11T00:19:39;43.47;;;23.97;;
22543;SDS011;11438;52.044;8.716;2023-02-11T00:22:04;43.23;;;24.20;;
22543;SDS011;11438;52.044;8.716;2023-02-11T00:24:30;42.00;;;21.43;;
22543;SDS011;11438;52.044;8.716;2023-02-11T00:26:56;41.13;;;22.23;;
22543;SDS011;11438;52.044;8.716;2023-02-11T00:29:21;49.83;;;24.90;;
22543;SDS011;11438;52.044;8.716;2023-02-11T00:31:47;42.27;;;24.03;;
22543;SDS011;11438;52.044;8.716;2023-02-11T00:34:12;41.97;;;24.00;;
22543;SDS011;11438;52.044;8.716;2023-02-11T00:36:38;41.97;;;23.20;;
22543;SDS011;11438;52.044;8.716;2023-02-11T00:39:04;45.13;;;24.83;;
22543;SDS011;11438;52.044;8.716;2023-02-11T00:41:30;43.00;;;24.40;;
22543;SDS011;11438;52.044;8.716;2023-02-11T00:43:56;41.28;;;23.30;;
22543;SDS011;11438;52.044;8.716;2023-02-11T00:46:21;37.92;;;22.48;;
22543;SDS011;11438;52.044;8.716;2023-02-11T00:48:47;44.17;;;25.43;;
22543;SDS011;11438;52.044;8.716;2023-02-11T00:51:13;42.60;;;24.10;;
22543;SDS011;11438;52.044;8.716;2023-02-11T00:53:39;42.70;;;22.60;;
22543;SDS011;11438;52.044;8.716;2023-02-11T00:56:05;41.60;;;22.67;;
22543;SDS011;11438;52.044;8.716;2023-02-11T00:58:30;45.05;;;24.50;;
22543;SDS011;11438;52.044;8.716;2023-02-11T01:00:56;44.58;;;23.65;;
22543;SDS011;11438;52.044;8.716;2023-02-11T01:03:22;46.65;;;25.35;;
22543;SDS011;11438;52.044;8.716;2023-02-11T01:05:48;43.15;;;24.25;;
22543;SDS011;11438;52.044;8.716;2023-02-11T01:08:13;41.67;;;23.67;;
22543;SDS011;11438;52.044;8.716;2023-02-11T01:10:39;47.43;;;26.87;;
22543;SDS011;11438;52.044;8.716;2023-02-11T01:13:05;48.30;;;26.37;;
22543;SDS011;11438;52.044;8.716;2023-02-11T01:15:31;43.03;;;24.33;;
22543;SDS011;11438;52.044;8.716;2023-02-11T01:17:56;43.67;;;23.67;;
22543;SDS011;11438;52.044;8.716;2023-02-11T01:20:24;44.73;;;24.47;;
22543;SDS011;11438;52.044;8.716;2023-02-11T01:22:51;43.13;;;24.10;;
22543;SDS011;11438;52.044;8.716;2023-02-11T01:25:16;47.33;;;26.52;;
22543;SDS011;11438;52.044;8.716;2023-02-11T01:27:42;42.87;;;23.90;;
22543;SDS011;11438;52.044;8.716;2023-02-11T01:30:08;43.97;;;24.25;;
22543;SDS011;11438;52.044;8.716;2023-02-11T01:32:36;42.10;;;23.57;;
22543;SDS011;11438;52.044;8.716;2023-02-11T01:35:02;39.87;;;23.40;;
22543;SDS011;11438;52.044;8.716;2023-02-11T01:37:27;41.90;;;23.63;;
22543;SDS011;11438;52.044;8.716;2023-02-11T01:39:53;45.70;;;26.27;;
22543;SDS011;11438;52.044;8.716;2023-02-11T01:42:20;37.22;;;22.67;;
22543;SDS011;11438;52.044;8.716;2023-02-11T01:44:48;40.50;;;22.77;;
22543;SDS011;11438;52.044;8.716;2023-02-11T01:47:15;40.30;;;24.33;;
22543;SDS011;11438;52.044;8.716;2023-02-11T01:49:43;37.23;;;23.13;;
22543;SDS011;11438;52.044;8.716;2023-02-11T01:52:27;38.47;;;22.85;;
22543;SDS011;11438;52.044;8.716;2023-02-11T01:54:56;38.13;;;22.23;;
22543;SDS011;11438;52.044;8.716;2023-02-11T01:58:05;34.83;;;21.13;;
22543;SDS011;11438;52.044;8.716;2023-02-11T02:00:33;35.13;;;21.40;;
22543;SDS011;11438;52.044;8.716;2023-02-11T02:03:08;40.37;;;23.60;;
22543;SDS011;11438;52.044;8.716;2023-02-11T02:05:39;38.33;;;21.73;;
22543;SDS011;11438;52.044;8.716;2023-02-11T02:10:59;40.97;;;22.50;;
22543;SDS011;11438;52.044;8.716;2023-02-11T02:13:25;38.57;;;21.37;;
22543;SDS011;11438;52.044;8.716;2023-02-11T02:15:53;36.13;;;21.33;;
22543;SDS011;11438;52.044;8.716;2023-02-11T02:32:59;43.47;;;24.97;;
22543;SDS011;11438;52.044;8.716;2023-02-11T02:36:04;43.37;;;22.97;;
22543;SDS011;11438;52.044;8.716;2023-02-11T02:41:13;42.73;;;23.77;;
22543;SDS011;11438;52.044;8.716;2023-02-11T02:43:44;39.63;;;23.63;;
22543;SDS011;11438;52.044;8.716;2023-02-11T02:46:19;37.63;;;22.60;;
22543;SDS011;11438;52.044;8.716;2023-02-11T02:48:48;43.27;;;24.00;;
22543;SDS011;11438;52.044;8.716;2023-02-11T02:59:59;44.10;;;22.43;;
22543;SDS011;11438;52.044;8.716;2023-02-11T03:02:40;41.77;;;22.43;;
22543;SDS011;11438;52.044;8.716;2023-02-11T03:05:29;41.73;;;22.27;;
22543;SDS011;11438;52.044;8.716;2023-02-11T03:10:56;38.87;;;22.20;;
22543;SDS011;11438;52.044;8.716;2023-02-11T03:13:24;40.10;;;21.90;;
22543;SDS011;11438;52.044;8.716;2023-02-11T03:15:54;39.60;;;22.20;;
22543;SDS011;11438;52.044;8.716;2023-02-11T03:18:23;40.60;;;23.57;;
22543;SDS011;11438;52.044;8.716;2023-02-11T03:20:51;38.72;;;22.38;;
22543;SDS011;11438;52.044;8.716;2023-02-11T03:23:21;41.55;;;23.05;;
22543;SDS011;11438;52.044;8.716;2023-02-11T03:25:55;38.57;;;22.20;;
22543;SDS011;11438;52.044;8.716;2023-02-11T03:28:47;39.58;;;21.67;;
22543;SDS011;11438;52.044;8.716;2023-02-11T03:31:21;39.80;;;22.10;;
22543;SDS011;11438;52.044;8.716;2023-02-11T03:34:02;37.87;;;22.57;;
22543;SDS011;11438;52.044;8.716;2023-02-11T03:39:32;33.30;;;19.80;;
22543;SDS011;11438;52.044;8.716;2023-02-11T03:42:05;33.88;;;19.75;;
22543;SDS011;11438;52.044;8.716;2023-02-11T03:44:34;39.63;;;21.80;;
22543;SDS011;11438;52.044;8.716;2023-02-11T03:47:03;34.80;;;19.70;;
22543;SDS011;11438;52.044;8.716;2023-02-11T03:49:34;35.03;;;19.25;;
22543;SDS011;11438;52.044;8.716;2023-02-11T03:52:02;37.07;;;21.67;;
22543;SDS011;11438;52.044;8.716;2023-02-11T03:54:30;34.60;;;19.70;;
22543;SDS011;11438;52.044;8.716;2023-02-11T03:56:57;32.28;;;20.17;;
22543;SDS011;11438;52.044;8.716;2023-02-11T03:59:24;32.97;;;19.23;;
22543;SDS011;11438;52.044;8.716;2023-02-11T04:01:50;36.13;;;19.53;;
22543;SDS011;11438;52.044;8.716;2023-02-11T04:04:16;35.57;;;20.67;;
22543;SDS011;11438;52.044;8.716;2023-02-11T04:06:42;32.60;;;19.30;;
22543;SDS011;11438;52.044;8.716;2023-02-11T04:09:08;31.40;;;19.00;;
22543;SDS011;11438;52.044;8.716;2023-02-11T04:11:34;30.57;;;18.63;;
22543;SDS011;11438;52.044;8.716;2023-02-11T04:14:00;30.98;;;18.38;;
22543;SDS011;11438;52.044;8.716;2023-02-11T04:16:25;34.22;;;18.58;;
22543;SDS011;11438;52.044;8.716;2023-02-11T04:18:51;33.00;;;19.17;;
22543;SDS011;11438;52.044;8.716;2023-02-11T04:21:17;32.93;;;19.30;;
22543;SDS011;11438;52.044;8.716;2023-02-11T04:23:42;29.40;;;18.33;;
22543;SDS011;11438;52.044;8.716;2023-02-11T04:26:08;31.37;;;18.13;;
22543;SDS011;11438;52.044;8.716;2023-02-11T04:28:34;33.93;;;19.33;;
22543;SDS011;11438;52.044;8.716;2023-02-11T04:31:00;32.97;;;18.83;;
22543;SDS011;11438;52.044;8.716;2023-02-11T04:33:25;38.00;;;19.47;;
22543;SDS011;11438;52.044;8.716;2023-02-11T04:35:51;32.37;;;18.60;;
22543;SDS011;11438;52.044;8.716;2023-02-11T04:38:16;32.20;;;18.58;;
22543;SDS011;11438;52.044;8.716;2023-02-11T04:40:42;35.00;;;19.83;;
22543;SDS011;11438;52.044;8.716;2023-02-11T04:43:07;36.67;;;20.20;;
22543;SDS011;11438;52.044;8.716;2023-02-11T04:45:33;37.40;;;19.70;;
22543;SDS011;11438;52.044;8.716;2023-02-11T04:48:00;37.28;;;19.80;;
22543;SDS011;11438;52.044;8.716;2023-02-11T04:50:27;32.53;;;18.60;;
22543;SDS011;11438;52.044;8.716;2023-02-11T04:52:52;31.17;;;18.70;;
22543;SDS011;11438;52.044;8.716;2023-02-11T04:55:18;33.75;;;18.15;;
22543;SDS011;11438;52.044;8.716;2023-02-11T04:57:43;36.30;;;20.33;;
22543;SDS011;11438;52.044;8.716;2023-02-11T05:00:09;39.50;;;19.25;;
22543;SDS011;11438;52.044;8.716;2023-02-11T05:02:35;35.83;;;19.13;;
22543;SDS011;11438;52.044;8.716;2023-02-11T05:05:00;37.08;;;19.25;;
22543;SDS011;11438;52.044;8.716;2023-02-11T05:07:26;30.33;;;18.52;;
22543;SDS011;11438;52.044;8.716;2023-02-11T05:09:51;37.10;;;18.67;;
22543;SDS011;11438;52.044;8.716;2023-02-11T05:12:17;30.17;;;18.27;;
22543;SDS011;11438;52.044;8.716;2023-02-11T05:14:42;32.00;;;19.13;;
22543;SDS011;11438;52.044;8.716;2023-02-11T05:17:08;36.20;;;19.37;;
22543;SDS011;11438;52.044;8.716;2023-02-11T05:19:33;32.92;;;18.92;;
22543;SDS011;11438;52.044;8.716;2023-02-11T05:21:59;28.77;;;17.85;;
22543;SDS011;11438;52.044;8.716;2023-02-11T05:24:24;33.60;;;19.13;;
22543;SDS011;11438;52.044;8.716;2023-02-11T05:26:50;33.13;;;20.07;;
22543;SDS011;11438;52.044;8.716;2023-02-11T05:29:15;34.03;;;19.20;;
22543;SDS011;11438;52.044;8.716;2023-02-11T05:31:41;31.97;;;19.23;;
22543;SDS011;11438;52.044;8.716;2023-02-11T05:34:06;38.47;;;19.80;;
22543;SDS011;11438;52.044;8.716;2023-02-11T05:36:32;36.33;;;19.77;;
22543;SDS011;11438;52.044;8.716;2023-02-11T05:38:57;32.83;;;18.80;;
22543;SDS011;11438;52.044;8.716;2023-02-11T05:41:23;33.50;;;19.33;;
22543;SDS011;11438;52.044;8.716;2023-02-11T05:43:48;34.97;;;19.87;;
22543;SDS011;11438;52.044;8.716;2023-02-11T05:46:17;32.60;;;18.25;;
22543;SDS011;11438;52.044;8.716;2023-02-11T05:48:43;34.75;;;19.35;;
22543;SDS011;11438;52.044;8.716;2023-02-11T05:51:08;34.23;;;19.00;;
22543;SDS011;11438;52.044;8.716;2023-02-11T05:53:34;34.47;;;18.53;;
22543;SDS011;11438;52.044;8.716;2023-02-11T05:55:59;33.43;;;18.37;;
22543;SDS011;11438;52.044;8.716;2023-02-11T05:58:25;33.63;;;20.67;;
22543;SDS011;11438;52.044;8.716;2023-02-11T06:00:51;32.10;;;19.50;;
22543;SDS011;11438;52.044;8.716;2023-02-11T06:03:16;32.13;;;19.38;;
22543;SDS011;11438;52.044;8.716;2023-02-11T06:05:42;39.00;;;20.83;;
22543;SDS011;11438;52.044;8.716;2023-02-11T06:08:08;32.95;;;20.52;;
22543;SDS011;11438;52.044;8.716;2023-02-11T06:10:34;39.77;;;23.47;;
22543;SDS011;11438;52.044;8.716;2023-02-11T06:13:00;33.13;;;20.37;;
22543;SDS011;11438;52.044;8.716;2023-02-11T06:15:26;35.37;;;20.20;;
22543;SDS011;11438;52.044;8.716;2023-02-11T06:17:51;35.97;;;20.10;;
22543;SDS011;11438;52.044;8.716;2023-02-11T06:20:17;31.70;;;19.77;;
22543;SDS011;11438;52.044;8.716;2023-02-11T06:22:43;31.43;;;19.30;;
22543;SDS011;11438;52.044;8.716;2023-02-11T06:25:09;34.10;;;18.88;;
22543;SDS011;11438;52.044;8.716;2023-02-11T06:27:35;32.90;;;18.92;;
22543;SDS011;11438;52.044;8.716;2023-02-11T06:30:01;30.88;;;19.75;;
22543;SDS011;11438;52.044;8.716;2023-02-11T06:32:27;38.50;;;21.90;;
22543;SDS011;11438;52.044;8.716;2023-02-11T06:34:52;35.22;;;19.65;;
22543;SDS011;11438;52.044;8.716;2023-02-11T06:37:18;35.92;;;19.35;;
22543;SDS011;11438;52.044;8.716;2023-02-11T06:39:43;29.58;;;18.45;;
22543;SDS011;11438;52.044;8.716;2023-02-11T06:42:09;30.17;;;19.08;;
22543;SDS011;11438;52.044;8.716;2023-02-11T06:44:35;38.47;;;20.47;;
22543;SDS011;11438;52.044;8.716;2023-02-11T06:47:00;36.25;;;21.25;;
22543;SDS011;11438;52.044;8.716;2023-02-11T06:49:26;39.15;;;21.00;;
22543;SDS011;11438;52.044;8.716;2023-02-11T06:51:51;32.90;;;20.50;;
22543;SDS011;11438;52.044;8.716;2023-02-11T06:54:17;40.23;;;21.23;;
22543;SDS011;11438;52.044;8.716;2023-02-11T06:56:42;36.90;;;20.75;;
22543;SDS011;11438;52.044;8.716;2023-02-11T06:59:08;36.50;;;19.30;;
22543;SDS011;11438;52.044;8.716;2023-02-11T07:01:40;37.80;;;22.37;;
22543;SDS011;11438;52.044;8.716;2023-02-11T07:04:05;41.13;;;21.83;;
22543;SDS011;11438;52.044;8.716;2023-02-11T07:06:32;38.72;;;21.15;;
22543;SDS011;11438;52.044;8.716;2023-02-11T07:08:57;35.83;;;20.90;;
22543;SDS011;11438;52.044;8.716;2023-02-11T07:11:24;39.33;;;22.90;;
22543;SDS011;11438;52.044;8.716;2023-02-11T07:13:53;36.78;;;21.58;;
22543;SDS011;11438;52.044;8.716;2023-02-11T07:16:23;37.90;;;21.33;;
22543;SDS011;11438;52.044;8.716;2023-02-11T07:18:49;39.23;;;22.23;;
22543;SDS011;11438;52.044;8.716;2023-02-11T07:21:16;39.22;;;22.00;;
22543;SDS011;11438;52.044;8.716;2023-02-11T07:23:43;39.13;;;21.30;;
22543;SDS011;11438;52.044;8.716;2023-02-11T07:26:10;43.80;;;24.47;;
22543;SDS011;11438;52.044;8.716;2023-02-11T07:28:37;41.50;;;24.42;;
22543;SDS011;11438;52.044;8.716;2023-02-11T07:31:08;39.63;;;23.08;;
22543;SDS011;11438;52.044;8.716;2023-02-11T07:33:36;42.03;;;23.53;;
22543;SDS011;11438;52.044;8.716;2023-02-11T07:36:02;47.50;;;26.53;;
22543;SDS011;11438;52.044;8.716;2023-02-11T07:38:29;42.13;;;25.43;;
22543;SDS011;11438;52.044;8.716;2023-02-11T07:40:58;45.67;;;24.00;;
22543;SDS011;11438;52.044;8.716;2023-02-11T07:43:29;41.15;;;23.35;;
22543;SDS011;11438;52.044;8.716;2023-02-11T07:45:55;43.97;;;24.50;;
22543;SDS011;11438;52.044;8.716;2023-02-11T07:48:21;44.37;;;24.40;;
22543;SDS011;11438;52.044;8.716;2023-02-11T07:50:46;45.93;;;24.47;;
22543;SDS011;11438;52.044;8.716;2023-02-11T07:53:12;44.90;;;25.90;;
22543;SDS011;11438;52.044;8.716;2023-02-11T07:55:37;41.37;;;23.87;;
22543;SDS011;11438;52.044;8.716;2023-02-11T07:58:03;40.47;;;22.63;;
22543;SDS011;11438;52.044;8.716;2023-02-11T08:00:28;43.07;;;23.50;;
22543;SDS011;11438;52.044;8.716;2023-02-11T08:02:55;41.40;;;24.83;;
22543;SDS011;11438;52.044;8.716;2023-02-11T08:05:21;42.08;;;24.15;;
22543;SDS011;11438;52.044;8.716;2023-02-11T08:07:49;47.83;;;27.10;;
22543;SDS011;11438;52.044;8.716;2023-02-11T08:10:16;47.08;;;25.27;;
22543;SDS011;11438;52.044;8.716;2023-02-11T08:12:41;43.65;;;24.08;;
22543;SDS011;11438;52.044;8.716;2023-02-11T08:15:07;45.30;;;25.55;;
22543;SDS011;11438;52.044;8.716;2023-02-11T08:17:34;38.80;;;22.87;;
22543;SDS011;11438;52.044;8.716;2023-02-11T08:20:00;42.38;;;24.00;;
22543;SDS011;11438;52.044;8.716;2023-02-11T08:22:25;40.65;;;22.98;;
22543;SDS011;11438;52.044;8.716;2023-02-11T08:24:51;36.58;;;22.80;;
22543;SDS011;11438;52.044;8.716;2023-02-11T08:27:16;44.03;;;25.08;;
22543;SDS011;11438;52.044;8.716;2023-02-11T08:29:42;40.45;;;23.13;;
22543;SDS011;11438;52.044;8.716;2023-02-11T08:32:07;47.00;;;22.40;;
22543;SDS011;11438;52.044;8.716;2023-02-11T08:34:33;41.10;;;23.95;;
22543;SDS011;11438;52.044;8.716;2023-02-11T08:36:58;42.63;;;24.33;;
22543;SDS011;11438;52.044;8.716;2023-02-11T08:39:23;39.73;;;24.17;;
22543;SDS011;11438;52.044;8.716;2023-02-11T08:41:53;49.90;;;24.43;;
22543;SDS011;11438;52.044;8.716;2023-02-11T08:44:20;45.17;;;24.08;;
22543;SDS011;11438;52.044;8.716;2023-02-11T08:46:46;39.53;;;23.10;;
22543;SDS011;11438;52.044;8.716;2023-02-11T08:49:12;45.08;;;25.38;;
22543;SDS011;11438;52.044;8.716;2023-02-11T08:51:39;43.40;;;23.55;;
22543;SDS011;11438;52.044;8.716;2023-02-11T08:54:04;42.83;;;23.85;;
22543;SDS011;11438;52.044;8.716;2023-02-11T08:56:33;47.77;;;23.47;;
22543;SDS011;11438;52.044;8.716;2023-02-11T08:58:58;40.05;;;23.85;;
22543;SDS011;11438;52.044;8.716;2023-02-11T09:01:25;41.87;;;24.03;;
22543;SDS011;11438;52.044;8.716;2023-02-11T09:03:52;47.38;;;25.75;;
22543;SDS011;11438;52.044;8.716;2023-02-11T09:06:19;42.95;;;23.45;;
22543;SDS011;11438;52.044;8.716;2023-02-11T09:08:46;47.10;;;25.13;;
22543;SDS011;11438;52.044;8.716;2023-02-11T09:11:13;42.40;;;22.13;;
22543;SDS011;11438;52.044;8.716;2023-02-11T09:13:40;41.92;;;23.35;;
22543;SDS011;11438;52.044;8.716;2023-02-11T09:16:06;51.07;;;25.30;;
22543;SDS011;11438;52.044;8.716;2023-02-11T09:18:32;50.90;;;25.13;;
22543;SDS011;11438;52.044;8.716;2023-02-11T09:21:02;41.47;;;22.83;;
22543;SDS011;11438;52.044;8.716;2023-02-11T09:23:28;42.58;;;24.10;;
22543;SDS011;11438;52.044;8.716;2023-02-11T09:25:54;46.22;;;26.05;;
22543;SDS011;11438;52.044;8.716;2023-02-11T09:28:19;51.17;;;26.45;;
22543;SDS011;11438;52.044;8.716;2023-02-11T09:30:45;46.13;;;26.50;;
22543;SDS011;11438;52.044;8.716;2023-02-11T09:33:10;54.08;;;29.70;;
22543;SDS011;11438;52.044;8.716;2023-02-11T09:35:36;43.70;;;24.23;;
22543;SDS011;11438;52.044;8.716;2023-02-11T09:38:01;53.15;;;28.13;;
22543;SDS011;11438;52.044;8.716;2023-02-11T09:40:27;49.85;;;26.58;;
22543;SDS011;11438;52.044;8.716;2023-02-11T09:42:56;46.70;;;24.00;;
22543;SDS011;11438;52.044;8.716;2023-02-11T09:45:28;48.33;;;26.23;;
22543;SDS011;11438;52.044;8.716;2023-02-11T09:48:01;50.93;;;27.73;;
22543;SDS011;11438;52.044;8.716;2023-02-11T09:50:41;50.55;;;27.15;;
22543;SDS011;11438;52.044;8.716;2023-02-11T09:55:42;46.53;;;24.70;;
22543;SDS011;11438;52.044;8.716;2023-02-11T09:58:11;53.20;;;25.98;;
22543;SDS011;11438;52.044;8.716;2023-02-11T10:00:40;48.70;;;25.20;;
22543;SDS011;11438;52.044;8.716;2023-02-11T10:08:25;46.20;;;25.50;;
22543;SDS011;11438;52.044;8.716;2023-02-11T10:10:58;46.83;;;25.38;;
22543;SDS011;11438;52.044;8.716;2023-02-11T10:13:36;53.05;;;28.05;;
22543;SDS011;11438;52.044;8.716;2023-02-11T10:16:21;53.25;;;28.23;;
22543;SDS011;11438;52.044;8.716;2023-02-11T10:18:54;45.67;;;24.02;;
22543;SDS011;11438;52.044;8.716;2023-02-11T10:24:38;46.28;;;24.40;;
22543;SDS011;11438;52.044;8.716;2023-02-11T10:27:20;46.95;;;23.73;;
22543;SDS011;11438;52.044;8.716;2023-02-11T10:29:49;45.88;;;25.17;;
22543;SDS011;11438;52.044;8.716;2023-02-11T10:32:26;47.88;;;26.40;;
22543;SDS011;11438;52.044;8.716;2023-02-11T10:35:11;48.20;;;25.55;;
22543;SDS011;11438;52.044;8.716;2023-02-11T10:37:39;44.15;;;25.15;;
22543;SDS011;11438;52.044;8.716;2023-02-11T10:40:05;45.50;;;23.30;;
22543;SDS011;11438;52.044;8.716;2023-02-11T10:42:37;45.88;;;22.58;;
22543;SDS011;11438;52.044;8.716;2023-02-11T10:45:03;43.47;;;23.52;;
22543;SDS011;11438;52.044;8.716;2023-02-11T10:47:33;43.15;;;24.10;;
22543;SDS011;11438;52.044;8.716;2023-02-11T10:50:05;49.15;;;25.73;;
22543;SDS011;11438;52.044;8.716;2023-02-11T10:52:43;48.78;;;24.38;;
22543;SDS011;11438;52.044;8.716;2023-02-11T10:57:39;42.28;;;21.02;;
22543;SDS011;11438;52.044;8.716;2023-02-11T11:03:01;41.00;;;23.00;;
22543;SDS011;11438;52.044;8.716;2023-02-11T11:05:33;37.95;;;21.45;;
22543;SDS011;11438;52.044;8.716;2023-02-11T11:08:03;38.70;;;21.65;;
22543;SDS011;11438;52.044;8.716;2023-02-11T11:10:43;40.88;;;21.65;;
22543;SDS011;11438;52.044;8.716;2023-02-11T11:18:37;38.35;;;21.13;;
22543;SDS011;11438;52.044;8.716;2023-02-11T11:21:04;33.80;;;20.23;;
22543;SDS011;11438;52.044;8.716;2023-02-11T11:23:31;33.40;;;19.17;;
22543;SDS011;11438;52.044;8.716;2023-02-11T11:28:41;36.00;;;21.13;;
22543;SDS011;11438;52.044;8.716;2023-02-11T11:31:17;33.80;;;19.23;;
22543;SDS011;11438;52.044;8.716;2023-02-11T11:33:48;33.90;;;19.05;;
22543;SDS011;11438;52.044;8.716;2023-02-11T11:36:21;32.25;;;18.30;;
22543;SDS011;11438;52.044;8.716;2023-02-11T11:38:57;34.97;;;19.42;;
22543;SDS011;11438;52.044;8.716;2023-02-11T11:41:28;32.83;;;19.27;;
22543;SDS011;11438;52.044;8.716;2023-02-11T11:44:13;32.25;;;18.52;;
22543;SDS011;11438;52.044;8.716;2023-02-11T11:46:42;34.00;;;20.05;;
22543;SDS011;11438;52.044;8.716;2023-02-11T11:49:21;37.60;;;19.85;;
22543;SDS011;11438;52.044;8.716;2023-02-11T11:51:57;34.25;;;19.27;;
22543;SDS011;11438;52.044;8.716;2023-02-11T11:54:35;39.65;;;20.67;;
22543;SDS011;11438;52.044;8.716;2023-02-11T11:57:02;34.33;;;19.45;;
22543;SDS011;11438;52.044;8.716;2023-02-11T11:59:37;37.42;;;21.52;;
22543;SDS011;11438;52.044;8.716;2023-02-11T12:08:17;33.67;;;19.65;;
22543;SDS011;11438;52.044;8.716;2023-02-11T12:11:09;37.47;;;20.15;;
22543;SDS011;11438;52.044;8.716;2023-02-11T12:13:59;33.92;;;19.35;;
22543;SDS011;11438;52.044;8.716;2023-02-11T12:16:35;37.20;;;20.42;;
22543;SDS011;11438;52.044;8.716;2023-02-11T12:22:00;31.42;;;17.40;;
22543;SDS011;11438;52.044;8.716;2023-02-11T12:24:55;32.40;;;17.90;;
22543;SDS011;11438;52.044;8.716;2023-02-11T12:27:49;34.70;;;19.48;;
22543;SDS011;11438;52.044;8.716;2023-02-11T12:30:33;38.80;;;21.30;;
22543;SDS011;11438;52.044;8.716;2023-02-11T12:35:55;34.72;;;19.60;;
22543;SDS011;11438;52.044;8.716;2023-02-11T12:44:44;38.15;;;20.88;;
22543;SDS011;11438;52.044;8.716;2023-02-11T12:50:43;39.75;;;20.52;;
22543;SDS011;11438;52.044;8.716;2023-02-11T12:55:57;40.28;;;20.52;;
22543;SDS011;11438;52.044;8.716;2023-02-11T12:58:51;40.22;;;22.45;;
22543;SDS011;11438;52.044;8.716;2023-02-11T13:01:19;41.65;;;21.73;;
22543;SDS011;11438;52.044;8.716;2023-02-11T13:03:54;35.42;;;19.17;;
22543;SDS011;11438;52.044;8.716;2023-02-11T13:06:31;38.17;;;20.27;;
22543;SDS011;11438;52.044;8.716;2023-02-11T13:09:02;41.75;;;21.20;;
22543;SDS011;11438;52.044;8.716;2023-02-11T13:11:33;40.10;;;20.80;;
22543;SDS011;11438;52.044;8.716;2023-02-11T13:14:06;34.03;;;19.23;;
22543;SDS011;11438;52.044;8.716;2023-02-11T13:16:43;37.42;;;19.38;;
22543;SDS011;11438;52.044;8.716;2023-02-11T13:22:09;34.40;;;19.23;;
22543;SDS011;11438;52.044;8.716;2023-02-11T13:24:50;37.90;;;20.00;;
22543;SDS011;11438;52.044;8.716;2023-02-11T13:30:33;33.55;;;17.88;;
22543;SDS011;11438;52.044;8.716;2023-02-11T13:33:01;42.05;;;22.15;;
22543;SDS011;11438;52.044;8.716;2023-02-11T13:35:29;34.55;;;19.67;;
22543;SDS011;11438;52.044;8.716;2023-02-11T13:40:43;32.47;;;18.85;;
22543;SDS011;11438;52.044;8.716;2023-02-11T13:43:19;33.78;;;18.92;;
22543;SDS011;11438;52.044;8.716;2023-02-11T13:45:47;34.55;;;19.08;;
22543;SDS011;11438;52.044;8.716;2023-02-11T13:50:58;34.22;;;17.55;;
22543;SDS011;11438;52.044;8.716;2023-02-11T13:53:26;36.25;;;19.60;;
22543;SDS011;11438;52.044;8.716;2023-02-11T13:56:03;32.13;;;17.38;;
22543;SDS011;11438;52.044;8.716;2023-02-11T13:58:36;35.65;;;18.80;;
22543;SDS011;11438;52.044;8.716;2023-02-11T14:01:11;36.22;;;19.17;;
22543;SDS011;11438;52.044;8.716;2023-02-11T14:04:05;34.53;;;18.25;;
22543;SDS011;11438;52.044;8.716;2023-02-11T14:07:20;31.58;;;16.67;;
22543;SDS011;11438;52.044;8.716;2023-02-11T14:10:05;28.83;;;15.80;;
22543;SDS011;11438;52.044;8.716;2023-02-11T14:13:12;29.92;;;15.98;;
22543;SDS011;11438;52.044;8.716;2023-02-11T14:15:50;31.95;;;18.13;;
22543;SDS011;11438;52.044;8.716;2023-02-11T14:23:43;33.97;;;18.48;;
22543;SDS011;11438;52.044;8.716;2023-02-11T14:26:21;35.85;;;18.17;;
22543;SDS011;11438;52.044;8.716;2023-02-11T14:29:02;29.48;;;17.20;;
22543;SDS011;11438;52.044;8.716;2023-02-11T14:31:42;35.40;;;18.65;;
22543;SDS011;11438;52.044;8.716;2023-02-11T14:37:29;33.60;;;18.33;;
22543;SDS011;11438;52.044;8.716;2023-02-11T14:40:02;30.60;;;16.17;;
22543;SDS011;11438;52.044;8.716;2023-02-11T14:42:47;32.15;;;18.10;;
22543;SDS011;11438;52.044;8.716;2023-02-11T14:45:17;30.70;;;16.58;;
22543;SDS011;11438;52.044;8.716;2023-02-11T14:48:04;28.27;;;15.93;;
22543;SDS011;11438;52.044;8.716;2023-02-11T14:50:39;26.42;;;15.93;;
22543;SDS011;11438;52.044;8.716;2023-02-11T14:53:12;31.58;;;16.30;;
22543;SDS011;11438;52.044;8.716;2023-02-11T14:55:41;31.48;;;17.48;;
22543;SDS011;11438;52.044;8.716;2023-02-11T14:58:11;33.35;;;17.70;;
22543;SDS011;11438;52.044;8.716;2023-02-11T15:03:24;26.25;;;16.35;;
22543;SDS011;11438;52.044;8.716;2023-02-11T15:05:55;25.92;;;16.05;;
22543;SDS011;11438;52.044;8.716;2023-02-11T15:08:29;31.42;;;17.60;;
22543;SDS011;11438;52.044;8.716;2023-02-11T15:10:56;27.63;;;16.00;;
22543;SDS011;11438;52.044;8.716;2023-02-11T15:13:24;30.23;;;16.55;;
22543;SDS011;11438;52.044;8.716;2023-02-11T15:15:56;26.85;;;16.05;;
22543;SDS011;11438;52.044;8.716;2023-02-11T15:18:35;31.15;;;16.83;;
22543;SDS011;11438;52.044;8.716;2023-02-11T15:21:05;30.83;;;16.17;;
22543;SDS011;11438;52.044;8.716;2023-02-11T15:23:32;29.30;;;16.05;;
22543;SDS011;11438;52.044;8.716;2023-02-11T15:25:58;31.23;;;17.23;;
22543;SDS011;11438;52.044;8.716;2023-02-11T15:28:28;29.95;;;16.67;;
22543;SDS011;11438;52.044;8.716;2023-02-11T15:31:18;35.45;;;17.73;;
22543;SDS011;11438;52.044;8.716;2023-02-11T15:33:43;28.13;;;16.55;;
22543;SDS011;11438;52.044;8.716;2023-02-11T15:36:09;28.30;;;17.58;;
22543;SDS011;11438;52.044;8.716;2023-02-11T15:38:36;30.42;;;17.17;;
22543;SDS011;11438;52.044;8.716;2023-02-11T15:41:02;31.88;;;18.08;;
22543;SDS011;11438;52.044;8.716;2023-02-11T15:46:14;28.70;;;16.08;;
22543;SDS011;11438;52.044;8.716;2023-02-11T15:48:46;31.38;;;17.63;;
22543;SDS011;11438;52.044;8.716;2023-02-11T15:51:26;26.38;;;16.08;;
22543;SDS011;11438;52.044;8.716;2023-02-11T15:53:55;26.80;;;16.48;;
22543;SDS011;11438;52.044;8.716;2023-02-11T15:56:26;31.17;;;16.88;;
22543;SDS011;11438;52.044;8.716;2023-02-11T15:58:55;29.85;;;17.05;;
22543;SDS011;11438;52.044;8.716;2023-02-11T16:01:31;28.63;;;17.80;;
22543;SDS011;11438;52.044;8.716;2023-02-11T16:03:58;29.58;;;17.15;;
22543;SDS011;11438;52.044;8.716;2023-02-11T16:06:25;32.42;;;18.48;;
22543;SDS011;11438;52.044;8.716;2023-02-11T16:09:18;31.33;;;17.92;;
22543;SDS011;11438;52.044;8.716;2023-02-11T16:11:55;30.85;;;18.77;;
22543;SDS011;11438;52.044;8.716;2023-02-11T16:16:52;30.80;;;17.00;;
22543;SDS011;11438;52.044;8.716;2023-02-11T16:19:21;32.08;;;17.52;;
22543;SDS011;11438;52.044;8.716;2023-02-11T16:21:48;31.70;;;17.08;;
22543;SDS011;11438;52.044;8.716;2023-02-11T16:24:18;35.15;;;19.38;;
22543;SDS011;11438;52.044;8.716;2023-02-11T16:26:53;33.28;;;17.65;;